Time;durP1;ratioP1;P1;durP2;ratioP2;P2;SDS_P1;SDS_P2;PMS_P1;PMS_P2;Temp;Humidity;BMP_temperature;BMP_pressure;BME280_temperature;BME280_humidity;BME280_pressure;Samples;Min_cycle;Max_cycle;Signal;HPM_P1;HPM_P2
2022/06/28 00:02:39;;;;;;;0.45;0.45;;;;;;;;;;6181407;23;20242;-90
2022/06/28 00:05:46;;;;;;;3.22;0.65;;;;;;;;;;6181400;23;20670;-89
2022/06/28 00:08:51;;;;;;;0.30;0.30;;;;;;;;;;6180896;23;20171;-89
2022/06/28 00:11:56;;;;;;;0.38;0.38;;;;;;;;;;6183367;23;20172;-90
2022/06/28 00:18:25;;;;;;;1.38;0.82;;;;;;;;;;6182131;23;20272;-89
2022/06/28 00:21:32;;;;;;;0.93;0.60;;;;;;;;;;6180972;23;20167;-90
2022/06/28 00:24:37;;;;;;;0.43;0.43;;;;;;;;;;6181482;23;20156;-88
2022/06/28 00:27:44;;;;;;;0.50;0.50;;;;;;;;;;6181250;23;20175;-88
2022/06/28 00:30:49;;;;;;;0.32;0.28;;;;;;;;;;6183395;23;20172;-88
2022/06/28 00:33:54;;;;;;;2.78;0.70;;;;;;;;;;6180857;23;20191;-89
2022/06/28 00:37:01;;;;;;;0.52;0.52;;;;;;;;;;6180643;23;20302;-89
2022/06/28 00:40:07;;;;;;;0.38;0.38;;;;;;;;;;6180744;23;20179;-90
2022/06/28 00:43:13;;;;;;;0.20;0.20;;;;;;;;;;6180288;23;20168;-89
2022/06/28 00:46:17;;;;;;;0.25;0.25;;;;;;;;;;6179454;23;20172;-88
2022/06/28 00:49:22;;;;;;;0.45;0.45;;;;;;;;;;6181304;23;20156;-90
2022/06/28 00:52:29;;;;;;;0.20;0.20;;;;;;;;;;6181353;23;20247;-89
2022/06/28 00:55:34;;;;;;;0.30;0.30;;;;;;;;;;6178283;23;20615;-90
2022/06/28 00:58:39;;;;;;;0.32;0.32;;;;;;;;;;6179055;23;20292;-88
2022/06/28 01:01:45;;;;;;;0.82;0.82;;;;;;;;;;6180225;23;20168;-89
2022/06/28 01:04:50;;;;;;;0.65;0.52;;;;;;;;;;6178758;23;20781;-90
2022/06/28 01:07:57;;;;;;;0.40;0.40;;;;;;;;;;6179093;23;20228;-89
2022/06/28 01:11:18;;;;;;;0.45;0.45;;;;;;;;;;6178494;23;20171;-90
2022/06/28 01:14:27;;;;;;;0.65;0.65;;;;;;;;;;6180821;23;20167;-89
2022/06/28 01:17:47;;;;;;;0.77;0.77;;;;;;;;;;6179489;23;20666;-89
2022/06/28 01:21:16;;;;;;;0.52;0.52;;;;;;;;;;6182387;23;20195;-91
2022/06/28 01:24:24;;;;;;;0.40;0.40;;;;;;;;;;6180288;23;20243;-89
2022/06/28 01:27:39;;;;;;;0.68;0.68;;;;;;;;;;6181179;23;20303;-89
2022/06/28 01:30:44;;;;;;;0.30;0.30;;;;;;;;;;6179915;23;20168;-90
2022/06/28 01:33:57;;;;;;;0.35;0.35;;;;;;;;;;6182187;23;20183;-90
2022/06/28 01:37:03;;;;;;;0.82;0.57;;;;;;;;;;6180564;23;20252;-89
2022/06/28 01:40:11;;;;;;;0.50;0.50;;;;;;;;;;6181054;23;20227;-89
2022/06/28 01:43:18;;;;;;;1.27;0.68;;;;;;;;;;6180724;23;20504;-90
2022/06/28 01:46:24;;;;;;;0.80;0.60;;;;;;;;;;6180335;23;20171;-90
2022/06/28 01:49:37;;;;;;;1.48;0.80;;;;;;;;;;6181008;23;20241;-90
2022/06/28 01:52:43;;;;;;;0.30;0.30;;;;;;;;;;6179354;23;20497;-87
2022/06/28 01:56:11;;;;;;;0.50;0.50;;;;;;;;;;6179299;23;20160;-90
2022/06/28 01:59:38;;;;;;;0.50;0.50;;;;;;;;;;6179700;23;20551;-88
2022/06/28 02:02:49;;;;;;;1.80;1.35;;;;;;;;;;6181231;23;20171;-90
2022/06/28 02:06:14;;;;;;;0.82;0.82;;;;;;;;;;6170907;23;20628;-89
2022/06/28 02:09:21;;;;;;;0.30;0.30;;;;;;;;;;6179125;23;20152;-89
2022/06/28 02:12:29;;;;;;;0.35;0.35;;;;;;;;;;6180735;23;20171;-89
2022/06/28 02:15:35;;;;;;;0.45;0.45;;;;;;;;;;6181587;23;20168;-88
2022/06/28 02:18:40;;;;;;;0.32;0.32;;;;;;;;;;6179490;23;20191;-90
2022/06/28 02:21:47;;;;;;;1.08;0.73;;;;;;;;;;6182012;23;20642;-88
2022/06/28 02:24:52;;;;;;;0.40;0.40;;;;;;;;;;6179356;23;20775;-89
2022/06/28 02:27:59;;;;;;;0.40;0.40;;;;;;;;;;6180185;23;20187;-89
2022/06/28 02:31:09;;;;;;;1.10;0.90;;;;;;;;;;6177570;23;20288;-90
2022/06/28 02:40:58;;;;;;;0.50;0.50;;;;;;;;;;6179325;23;20187;-88
2022/06/28 02:44:35;;;;;;;0.65;0.32;;;;;;;;;;6178900;23;20164;-90
2022/06/28 02:47:42;;;;;;;0.40;0.40;;;;;;;;;;6180409;23;20144;-90
2022/06/28 02:50:48;;;;;;;0.30;0.30;;;;;;;;;;6180319;23;20206;-89
2022/06/28 02:53:54;;;;;;;0.32;0.32;;;;;;;;;;6181187;23;20160;-90
2022/06/28 02:57:01;;;;;;;0.30;0.30;;;;;;;;;;6180905;23;20207;-89
2022/06/28 03:00:07;;;;;;;0.65;0.65;;;;;;;;;;6179789;23;20219;-88
2022/06/28 03:03:16;;;;;;;0.65;0.65;;;;;;;;;;6181104;23;20160;-91
2022/06/28 03:06:21;;;;;;;0.45;0.45;;;;;;;;;;6179715;23;20253;-89
2022/06/28 03:09:26;;;;;;;0.80;0.80;;;;;;;;;;6180536;23;20160;-91
2022/06/28 03:12:35;;;;;;;0.20;0.20;;;;;;;;;;6180739;23;20171;-89
2022/06/28 03:15:40;;;;;;;0.40;0.40;;;;;;;;;;6179981;23;20168;-89
2022/06/28 03:18:47;;;;;;;1.08;0.90;;;;;;;;;;6180945;23;20152;-90
2022/06/28 03:21:53;;;;;;;0.55;0.40;;;;;;;;;;6181506;23;20588;-89
2022/06/28 03:24:58;;;;;;;0.40;0.40;;;;;;;;;;6180678;23;20152;-89
2022/06/28 03:28:04;;;;;;;0.32;0.32;;;;;;;;;;6181996;23;20150;-89
2022/06/28 03:31:11;;;;;;;0.32;0.32;;;;;;;;;;6180776;23;20284;-90
2022/06/28 03:34:19;;;;;;;0.30;0.30;;;;;;;;;;6181431;23;20199;-89
2022/06/28 03:37:24;;;;;;;0.40;0.40;;;;;;;;;;6182087;23;20168;-88
2022/06/28 03:40:35;;;;;;;0.50;0.50;;;;;;;;;;6181436;23;20195;-88
2022/06/28 03:47:15;;;;;;;0.45;0.45;;;;;;;;;;6182715;23;20171;-88
2022/06/28 03:50:40;;;;;;;0.50;0.50;;;;;;;;;;6201504;23;20618;-90
2022/06/28 03:53:56;;;;;;;0.50;0.50;;;;;;;;;;6182006;23;20167;-88
2022/06/28 03:57:09;;;;;;;0.50;0.50;;;;;;;;;;6182281;23;20295;-89
2022/06/28 04:00:15;;;;;;;0.63;0.47;;;;;;;;;;6180769;23;20187;-89
2022/06/28 04:03:23;;;;;;;0.40;0.40;;;;;;;;;;6182867;23;20164;-89
2022/06/28 04:06:29;;;;;;;0.35;0.35;;;;;;;;;;6184268;23;20595;-89
2022/06/28 04:09:34;;;;;;;0.30;0.30;;;;;;;;;;6182033;23;20176;-88
2022/06/28 04:12:39;;;;;;;0.38;0.38;;;;;;;;;;6182881;23;20493;-90
2022/06/28 04:15:56;;;;;;;1.23;0.60;;;;;;;;;;6179561;23;20245;-88
2022/06/28 04:19:04;;;;;;;0.40;0.40;;;;;;;;;;6182327;23;20615;-89
2022/06/28 04:22:19;;;;;;;0.55;0.55;;;;;;;;;;6182276;23;20627;-90
2022/06/28 04:25:25;;;;;;;0.50;0.40;;;;;;;;;;6183302;23;20214;-89
2022/06/28 04:28:31;;;;;;;1.85;0.80;;;;;;;;;;6183412;23;20167;-89
2022/06/28 04:31:44;;;;;;;0.30;0.30;;;;;;;;;;6183266;23;20172;-89
2022/06/28 04:34:50;;;;;;;0.20;0.20;;;;;;;;;;6183943;23;20171;-89
2022/06/28 04:37:56;;;;;;;0.43;0.43;;;;;;;;;;6184886;23;20167;-90
2022/06/28 04:41:24;;;;;;;0.30;0.30;;;;;;;;;;6201548;23;20168;-91
2022/06/28 04:44:33;;;;;;;0.30;0.30;;;;;;;;;;6183661;23;20156;-90
2022/06/28 04:47:39;;;;;;;0.30;0.30;;;;;;;;;;6181830;23;20176;-89
2022/06/28 04:50:45;;;;;;;7.45;3.00;;;;;;;;;;6183585;23;20244;-89
2022/06/28 04:53:55;;;;;;;7.60;3.38;;;;;;;;;;6184239;23;20260;-90
2022/06/28 04:57:01;;;;;;;6.00;3.20;;;;;;;;;;6182074;23;20175;-90
2022/06/28 05:00:07;;;;;;;9.52;2.63;;;;;;;;;;6184430;23;20223;-88
2022/06/28 05:03:17;;;;;;;4.78;2.80;;;;;;;;;;6181427;23;20672;-88
2022/06/28 05:06:41;;;;;;;5.60;3.10;;;;;;;;;;6201706;23;20168;-89
2022/06/28 05:09:50;;;;;;;7.45;2.80;;;;;;;;;;6182626;23;20172;-90
2022/06/28 05:12:56;;;;;;;6.25;3.78;;;;;;;;;;6184673;23;20195;-90
2022/06/28 05:16:03;;;;;;;8.98;3.60;;;;;;;;;;6182826;23;20218;-91
2022/06/28 05:19:09;;;;;;;6.68;3.25;;;;;;;;;;6183635;23;20211;-90
2022/06/28 05:22:16;;;;;;;7.95;3.40;;;;;;;;;;6181961;23;20215;-90
2022/06/28 05:25:51;;;;;;;10.38;3.50;;;;;;;;;;6182347;23;20151;-89
2022/06/28 05:28:58;;;;;;;5.07;3.55;;;;;;;;;;6180913;23;20196;-91
2022/06/28 05:32:03;;;;;;;10.88;3.90;;;;;;;;;;6181517;23;20171;-91
2022/06/28 05:35:13;;;;;;;6.63;3.70;;;;;;;;;;6182974;23;20168;-90
2022/06/28 05:38:19;;;;;;;7.13;4.22;;;;;;;;;;6182403;23;20183;-90
2022/06/28 05:41:26;;;;;;;6.03;4.00;;;;;;;;;;6181480;23;20175;-91
2022/06/28 05:44:31;;;;;;;8.55;4.32;;;;;;;;;;6183966;23;20172;-90
2022/06/28 05:47:39;;;;;;;8.43;4.82;;;;;;;;;;6182908;23;20163;-91
2022/06/28 05:50:45;;;;;;;9.13;4.30;;;;;;;;;;6183071;23;20221;-90
2022/06/28 05:53:51;;;;;;;9.15;4.85;;;;;;;;;;6185084;23;20168;-91
2022/06/28 05:56:59;;;;;;;13.95;5.30;;;;;;;;;;6186291;23;20184;-88
2022/06/28 06:00:10;;;;;;;9.15;4.80;;;;;;;;;;6181573;23;20247;-90
2022/06/28 06:03:22;;;;;;;9.80;4.90;;;;;;;;;;6185085;23;20213;-90
2022/06/28 06:06:31;;;;;;;9.27;5.20;;;;;;;;;;6188803;23;20203;-90
2022/06/28 06:09:41;;;;;;;8.85;5.00;;;;;;;;;;6182533;23;20167;-89
2022/06/28 14:13:36;;;;;;;7.03;3.65;;;;;;;;;;6176207;22;20212;-90
2022/06/28 14:16:43;;;;;;;5.43;2.78;;;;;;;;;;6213398;23;20534;-90
2022/06/28 14:19:49;;;;;;;5.65;2.85;;;;;;;;;;6211576;23;20163;-90
2022/06/28 14:22:58;;;;;;;7.22;2.97;;;;;;;;;;6211789;23;20200;-90
2022/06/28 14:26:04;;;;;;;4.45;2.97;;;;;;;;;;6212278;23;20215;-90
2022/06/28 14:29:11;;;;;;;6.18;3.08;;;;;;;;;;6212769;23;20242;-89
2022/06/28 14:32:18;;;;;;;6.38;3.17;;;;;;;;;;6212670;23;20171;-91
2022/06/28 14:35:23;;;;;;;9.15;3.33;;;;;;;;;;6213093;23;20234;-90
2022/06/28 14:38:30;;;;;;;9.75;3.45;;;;;;;;;;6229423;22;20155;-92
2022/06/28 14:44:33;;;;;;;7.85;3.72;;;;;;;;;;6167676;23;20212;-90
2022/06/28 14:47:41;;;;;;;3.88;2.80;;;;;;;;;;6171883;23;20235;-89
2022/06/28 14:50:46;;;;;;;5.22;2.60;;;;;;;;;;6152732;23;20329;-90
2022/06/28 14:53:52;;;;;;;4.82;2.80;;;;;;;;;;6150352;23;20267;-89
2022/06/28 14:56:58;;;;;;;7.07;2.95;;;;;;;;;;6151717;23;20169;-89
2022/06/28 15:00:06;;;;;;;6.30;2.83;;;;;;;;;;6152438;23;20167;-91
2022/06/28 15:03:12;;;;;;;7.60;2.80;;;;;;;;;;6155507;23;20172;-88
2022/06/28 15:06:27;;;;;;;4.47;3.00;;;;;;;;;;6155147;23;20235;-90
2022/06/28 15:09:33;;;;;;;4.57;3.28;;;;;;;;;;6156255;23;20213;-90
2022/06/28 15:12:42;;;;;;;9.10;2.85;;;;;;;;;;6152915;23;20176;-90
2022/06/28 15:15:50;;;;;;;8.88;3.00;;;;;;;;;;6154844;23;20221;-90
2022/06/28 15:18:56;;;;;;;9.68;4.90;;;;;;;;;;6154694;23;20164;-89
2022/06/28 15:32:14;;;;;;;6.18;3.00;;;;;;;;;;6152829;23;20265;-90
2022/06/28 15:35:19;;;;;;;6.22;3.47;;;;;;;;;;6155283;23;20501;-90
2022/06/28 15:38:26;;;;;;;8.15;3.40;;;;;;;;;;6154961;23;20168;-89
2022/06/28 15:41:32;;;;;;;7.00;4.35;;;;;;;;;;6157697;23;20164;-90
2022/06/28 15:48:55;;;;;;;12.00;5.97;;;;;;;;;;6176685;23;20220;-89
2022/06/28 15:52:09;;;;;;;4.35;3.20;;;;;;;;;;6158781;23;20179;-89
2022/06/28 15:55:15;;;;;;;7.05;3.47;;;;;;;;;;6156936;23;20177;-87
2022/06/28 15:58:23;;;;;;;9.63;3.17;;;;;;;;;;6158152;23;20212;-91
2022/06/28 16:01:32;;;;;;;5.63;3.70;;;;;;;;;;6154745;23;20189;-90
2022/06/28 16:04:39;;;;;;;7.03;3.10;;;;;;;;;;6172803;23;20169;-90
2022/06/28 16:07:45;;;;;;;6.47;3.50;;;;;;;;;;6153930;23;20623;-90
2022/06/28 16:10:50;;;;;;;12.60;3.33;;;;;;;;;;6152370;23;20200;-89
2022/06/28 16:13:56;;;;;;;7.15;3.20;;;;;;;;;;6172430;23;20184;-89
2022/06/28 16:17:02;;;;;;;6.80;3.90;;;;;;;;;;6154283;23;20168;-90
2022/06/28 16:20:18;;;;;;;5.43;3.95;;;;;;;;;;6153548;23;20218;-88
2022/06/28 16:23:24;;;;;;;8.43;3.85;;;;;;;;;;6152628;23;20225;-89
2022/06/28 16:26:29;;;;;;;10.95;4.00;;;;;;;;;;6156071;23;20156;-88
2022/06/28 16:29:36;;;;;;;6.43;3.88;;;;;;;;;;6153549;23;20209;-90
2022/06/28 16:32:41;;;;;;;8.63;4.38;;;;;;;;;;6153509;23;20156;-89
2022/06/28 16:35:48;;;;;;;6.13;4.63;;;;;;;;;;6172853;23;20177;-89
2022/06/28 16:38:53;;;;;;;11.93;4.47;;;;;;;;;;6153408;23;20168;-90
2022/06/28 16:41:59;;;;;;;8.10;4.30;;;;;;;;;;6151274;23;20172;-89
2022/06/28 16:45:05;;;;;;;9.95;4.50;;;;;;;;;;6152928;23;20212;-86
2022/06/28 16:48:11;;;;;;;7.03;3.55;;;;;;;;;;6154437;23;20352;-89
2022/06/28 16:51:19;;;;;;;8.35;4.15;;;;;;;;;;6156338;23;20196;-90
2022/06/28 16:54:28;;;;;;;7.13;4.55;;;;;;;;;;6155911;23;20224;-88
2022/06/28 16:57:36;;;;;;;6.70;4.43;;;;;;;;;;6156721;23;20508;-89
2022/06/28 17:00:44;;;;;;;6.07;4.25;;;;;;;;;;6157449;23;20210;-86
2022/06/28 17:03:50;;;;;;;8.40;4.35;;;;;;;;;;6156041;23;20237;-88
2022/06/28 17:10:21;;;;;;;7.88;4.53;;;;;;;;;;6156807;23;20236;-88
2022/06/28 17:13:29;;;;;;;8.40;4.45;;;;;;;;;;6156228;23;20508;-89
2022/06/28 17:16:35;;;;;;;7.60;4.30;;;;;;;;;;6157223;23;20169;-88
2022/06/28 17:19:43;;;;;;;6.22;4.68;;;;;;;;;;6156389;23;20176;-90
2022/06/28 17:22:55;;;;;;;7.32;4.50;;;;;;;;;;6157336;23;20168;-89
2022/06/28 17:26:00;;;;;;;6.45;4.72;;;;;;;;;;6156067;23;20164;-89
2022/06/28 17:29:07;;;;;;;17.92;8.35;;;;;;;;;;6153917;23;20216;-88
2022/06/28 17:35:32;;;;;;;13.80;5.40;;;;;;;;;;6172155;23;20176;-90
2022/06/28 17:38:39;;;;;;;8.52;5.50;;;;;;;;;;6155567;23;20181;-89
2022/06/28 17:41:44;;;;;;;17.20;6.60;;;;;;;;;;6154350;23;20192;-89
2022/06/28 17:44:50;;;;;;;11.43;6.60;;;;;;;;;;6154428;23;20164;-89
2022/06/28 17:47:57;;;;;;;16.48;6.72;;;;;;;;;;6154459;23;20267;-88
2022/06/28 17:51:02;;;;;;;0.70;0.70;;;;;;;;;;6155068;23;20200;-88
2022/06/28 17:54:11;;;;;;;0.98;0.88;;;;;;;;;;6156458;23;20151;-88
2022/06/28 22:06:37;;;;;;;0.43;0.43;;;;;;;;;;6173327;23;20216;-89
2022/06/28 22:09:42;;;;;;;0.45;0.45;;;;;;;;;;6215841;23;20158;-90
2022/06/28 22:12:47;;;;;;;0.55;0.55;;;;;;;;;;6207751;23;20195;-89
2022/06/28 22:15:53;;;;;;;0.57;0.57;;;;;;;;;;6209000;23;20155;-90
2022/06/28 22:37:16;;;;;;;0.43;0.40;;;;;;;;;;6139367;23;20232;-88
2022/06/28 22:40:21;;;;;;;0.22;0.22;;;;;;;;;;6120302;23;20165;-89
2022/06/28 22:43:26;;;;;;;0.77;0.50;;;;;;;;;;6135940;23;20301;-90
2022/06/28 22:46:32;;;;;;;0.50;0.50;;;;;;;;;;6119198;23;20512;-89
2022/06/28 22:49:37;;;;;;;0.50;0.50;;;;;;;;;;6119971;23;20210;-89
2022/06/28 22:52:44;;;;;;;4.30;1.08;;;;;;;;;;6121604;23;20249;-92
2022/06/28 22:55:49;;;;;;;0.35;0.35;;;;;;;;;;6121375;23;20169;-87
2022/06/28 22:58:55;;;;;;;1.05;0.80;;;;;;;;;;6121976;23;20184;-91
2022/06/28 23:02:00;;;;;;;0.60;0.60;;;;;;;;;;6120391;23;20172;-89
2022/06/28 23:05:06;;;;;;;0.98;0.68;;;;;;;;;;6118293;23;20169;-88
2022/06/28 23:08:16;;;;;;;0.47;0.47;;;;;;;;;;6120177;23;20169;-91
2022/06/28 23:11:21;;;;;;;0.28;0.28;;;;;;;;;;6120658;23;20280;-88
2022/06/28 23:14:26;;;;;;;5.28;1.45;;;;;;;;;;6120300;23;20166;-89
2022/06/28 23:17:32;;;;;;;0.40;0.40;;;;;;;;;;6121284;23;20165;-88
2022/06/28 23:20:37;;;;;;;0.40;0.40;;;;;;;;;;6119418;23;20181;-91
2022/06/28 23:23:44;;;;;;;3.67;1.15;;;;;;;;;;6119262;23;20180;-90
2022/06/28 23:26:50;;;;;;;0.32;0.32;;;;;;;;;;6120978;23;20161;-91
2022/06/28 23:29:55;;;;;;;0.52;0.50;;;;;;;;;;6120814;23;20632;-89
2022/06/28 23:33:00;;;;;;;0.43;0.43;;;;;;;;;;6119146;23;20201;-89
2022/06/28 23:36:06;;;;;;;0.95;0.85;;;;;;;;;;6120451;23;20207;-88
2022/06/28 23:39:12;;;;;;;0.85;0.73;;;;;;;;;;6122471;23;20169;-86
2022/06/28 23:42:17;;;;;;;4.05;0.75;;;;;;;;;;6121813;23;20177;-89
2022/06/28 23:45:23;;;;;;;7.25;1.20;;;;;;;;;;6140699;23;20169;-89
2022/06/28 23:48:29;;;;;;;0.70;0.57;;;;;;;;;;6123181;23;20169;-89
2022/06/28 23:51:34;;;;;;;0.43;0.43;;;;;;;;;;6122931;23;20196;-88
2022/06/28 23:58:08;;;;;;;7.95;1.05;;;;;;;;;;6123162;23;20192;-90
